ADDS METAR Data INFO
IDs: Format: Raw Decoded Include TAF

Data at: 1333 UTC 23 Jun 2018

KM40 231315Z AUTO 14003KT 9SM 22/20 A2991 RMK AO2
KM40 231255Z AUTO 00000KT 8SM -DZ 22/21 A2990 RMK AO2
KM40 231235Z AUTO 20004KT 3SM -DZ 22/21 A2991 RMK AO2
KM40 231215Z AUTO 02005KT 3SM -DZ 22/22 A2991 RMK AO2
KM40 231155Z AUTO 02006KT 6SM -DZ 22/21 A2990 RMK AO2
KM40 231135Z AUTO 12005KT 7SM 22/21 A2988 RMK AO2
KM40 231115Z AUTO 03005KT 6SM -DZ 22/21 A2987 RMK AO2
KM40 231055Z AUTO 05003KT 5SM -RA 22/21 A2987 RMK AO2
KM40 231035Z AUTO 00000KT 7SM -DZ 22/21 A2986 RMK AO2
KM40 231015Z AUTO 00000KT 8SM 22/21 A2985 RMK AO2
KM40 230955Z AUTO 15004KT 10SM 22/21 A2984 RMK AO2
KM40 230935Z AUTO 00000KT 10SM 22/20 A2984 RMK AO2
KM40 230915Z AUTO 15004KT 9SM 22/20 A2984 RMK AO2
KM40 230855Z AUTO 00000KT 10SM 22/20 A2983 RMK AO2
KM40 230835Z AUTO 00000KT 9SM -DZ 22/21 A2984 RMK AO2
KM40 230815Z AUTO 16007KT 9SM -DZ 21/20 A2983 RMK AO2
KM40 230755Z AUTO 15003KT 9SM 21/20 A2983 RMK AO2
KM40 230735Z AUTO 00000KT 9SM 21/20 A2984 RMK AO2
KM40 230715Z AUTO 17004KT 10SM 21/20 A2984 RMK AO2
KM40 230655Z AUTO 00000KT 10SM 21/20 A2984 RMK AO2
KM40 230635Z AUTO 18003KT 10SM 21/21 A2985 RMK AO2
KM40 230615Z AUTO 16003KT 8SM 21/20 A2985 RMK AO2
KM40 230555Z AUTO 00000KT 8SM 21/20 A2985 RMK AO2
KM40 230535Z AUTO 00000KT 9SM 21/20 A2985 RMK AO2
KM40 230515Z AUTO 00000KT 9SM 21/20 A2985 RMK AO2
KM40 230455Z AUTO 17003KT 10SM 21/20 A2985 RMK AO2
KM40 230435Z AUTO 00000KT 8SM 21/21 A2985 RMK AO2
KM40 230415Z AUTO 00000KT 9SM 21/21 A2984 RMK AO2
KM40 230355Z AUTO 00000KT 9SM 21/21 A2984 RMK AO2
KM40 230335Z AUTO 00000KT 9SM 22/22 A2983 RMK AO2
KM40 230315Z AUTO 00000KT 10SM 22/22 A2983 RMK AO2
KM40 230255Z AUTO 00000KT 10SM 22/22 A2983 RMK AO2
KM40 230235Z AUTO 00000KT 10SM 23/23 A2983 RMK AO2
KM40 230215Z AUTO 21003KT 10SM 23/23 A2983 RMK AO2
KM40 230155Z AUTO 22004KT 10SM 24/24 A2982 RMK AO2
KM40 230135Z AUTO 22005KT 10SM 24/24 A2981 RMK AO2
KM40 230115Z AUTO 00000KT 9SM 24/24 A2980 RMK AO2
KM40 230055Z AUTO 00000KT 9SM 25/25 A2979 RMK AO2
KM40 230035Z AUTO 24006KT 10SM 25/25 A2979 RMK AO2
KM40 230015Z AUTO 24007KT 10SM 26/26 A2978 RMK AO2
KM40 222355Z AUTO 23007KT 9SM 26/26 A2979 RMK AO2
KM40 222335Z AUTO 25013G19KT 220V280 9SM 27/27 A2980 RMK AO2
KM40 222315Z AUTO 24010G15KT 9SM 27/27 A2979 RMK AO2
KM40 222255Z AUTO 22005KT 8SM 28/27 A2979 RMK AO2
KM40 222235Z AUTO 23009KT 9SM 28/28 A2979 RMK AO2
KM40 222215Z AUTO 22011KT 9SM 29/28 A2979 RMK AO2
KM40 222155Z AUTO 23007G14KT 9SM 29/28 A2979 RMK AO2
KM40 222135Z AUTO 22008G14KT 9SM 30/28 A2979 RMK AO2
KM40 222115Z AUTO 22008KT 10SM 30/29 A2978 RMK AO2
KM40 222055Z AUTO 21008G14KT 10SM 32/29 A2978 RMK AO2
KM40 222035Z AUTO 23010G15KT 9SM 31/29 A2979 RMK AO2
KM40 222015Z AUTO 22011G16KT 9SM 31/30 A2979 RMK AO2
KM40 221955Z AUTO 21008G15KT 9SM 31/29 A2980 RMK AO2
KM40 221935Z AUTO 21007G13KT 9SM 30/29 A2981 RMK AO2
KM40 221915Z AUTO VRB05KT 9SM 29/27 A2982 RMK AO2
KM40 221855Z AUTO 22008KT 10SM -DZ 28/22 A2983 RMK AO2
KM40 221835Z AUTO 21006KT 10SM 27/19 A2984 RMK AO2
KM40 221815Z AUTO 19007KT 10SM 25/19 A2986 RMK AO2
KM40 221755Z AUTO 19007KT 10SM 24/18 A2987 RMK AO2
KM40 221735Z AUTO 20006KT 3SM -RA 23/18 A2988 RMK AO2
KM40 221715Z AUTO 18009KT 5SM -RA 24/18 A2988 RMK AO2
KM40 221655Z AUTO 22011G19KT 5SM -DZ 25/18 A2988 RMK AO2
KM40 221635Z AUTO 24006KT 4SM -DZ 25/18 A2988 RMK AO2
KM40 221615Z AUTO VRB03KT 3/4SM -RA 25/18 A2987 RMK AO2
KM40 221555Z AUTO 21006KT 5SM -DZ 26/18 A2988 RMK AO2
KM40 221535Z AUTO 21006KT 7SM 27/18 A2987 RMK AO2
KM40 221515Z AUTO 21008G13KT 7SM 26/17 A2986 RMK AO2
KM40 221455Z AUTO 20009KT 8SM 26/17 A2986 RMK AO2
KM40 221435Z AUTO 20008KT 8SM 26/17 A2985 RMK AO2
KM40 221415Z AUTO 20009KT 9SM 27/17 A2985 RMK AO2
KM40 221355Z AUTO 19009KT 9SM 26/16 A2985 RMK AO2
KM40 221335Z AUTO 19007KT 9SM 25/16 A2985 RMK AO2
KM40 221315Z AUTO 19004KT 9SM 24/15 A2985 RMK AO2
KM40 221255Z AUTO 18006KT 10SM 24/15 A2985 RMK AO2
KM40 221235Z AUTO 19005KT 10SM 23/13 A2985 RMK AO2
KM40 221215Z AUTO 16003KT 9SM 22/14 A2985 RMK AO2
KM40 221155Z AUTO 18004KT 10SM 22/14 A2986 RMK AO2
KM40 221135Z AUTO 19004KT 9SM 21/14 A2985 RMK AO2
KM40 221115Z AUTO 20006KT 9SM 21/14 A2985 RMK AO2
KM40 221055Z AUTO 19005KT 9SM 21/14 A2985 RMK AO2
KM40 221035Z AUTO 21004KT 10SM 20/15 A2985 RMK AO2
KM40 221015Z AUTO 19004KT 9SM 21/15 A2985 RMK AO2
KM40 220955Z AUTO 21006KT 10SM 21/18 A2984 RMK AO2
KM40 220935Z AUTO 20004KT 9SM 21/21 A2983 RMK AO2
KM40 220855Z AUTO 20005KT 9SM 21/21 A2983 RMK AO2
KM40 220835Z AUTO 18006KT 9SM 21/21 A2983 RMK AO2
KM40 220815Z AUTO 19003KT 9SM 21/21 A2983 RMK AO2
KM40 220755Z AUTO 20004KT 9SM 21/21 A2984 RMK AO2
KM40 220735Z AUTO 00000KT 8SM -DZ 21/21 A2984 RMK AO2
KM40 220715Z AUTO 21004KT 5SM -DZ 21/21 A2983 RMK AO2
KM40 220655Z AUTO 21003KT 4SM -DZ 21/21 A2984 RMK AO2
KM40 220635Z AUTO 00000KT 2SM -RA 20/21 A2984 RMK AO2
KM40 220615Z AUTO 30006KT 4SM -DZ 20/20 A2985 RMK AO2
KM40 220555Z AUTO VRB05G22KT 1SM +RA 20/20 A2986 RMK AO2
KM40 220535Z AUTO 31008G16KT 8SM -DZ 21/21 A2986 RMK AO2
KM40 220515Z AUTO 34016G25KT 9SM -DZ 23/24 A2987 RMK AO2
KM40 220455Z AUTO 19005KT 9SM 25/25 A2984 RMK AO2
KM40 220435Z AUTO 18005KT 9SM 25/25 A2983 RMK AO2
KM40 220415Z AUTO 18005KT 10SM 25/25 A2982 RMK AO2
KM40 220355Z AUTO 18004KT 10SM 25/25 A2982 RMK AO2
KM40 220335Z AUTO 16004KT 10SM 25/25 A2982 RMK AO2
KM40 220315Z AUTO 00000KT 10SM 25/25 A2983 RMK AO2
KM40 220255Z AUTO 16004KT 10SM 25/25 A2982 RMK AO2
KM40 220235Z AUTO 17003KT 10SM 26/26 A2982 RMK AO2
KM40 220215Z AUTO 19004KT 10SM 26/26 A2982 RMK AO2
KM40 220155Z AUTO 19005KT 10SM 26/26 A2981 RMK AO2
KM40 220135Z AUTO 21004KT 10SM 27/27 A2981 RMK AO2